sensor_id;sensor_type;location;lat;lon;timestamp;P1;durP1;ratioP1;P2;durP2;ratioP2
70450;SDS011;58869;51.982;4.450;2023-03-01T00:12:28;22.12;;;22.12;;
70450;SDS011;58869;51.982;4.450;2023-03-01T00:15:16;21.82;;;21.82;;
70450;SDS011;58869;51.982;4.450;2023-03-01T00:17:52;22.21;;;22.21;;
70450;SDS011;58869;51.982;4.450;2023-03-01T00:20:17;23.01;;;22.97;;
70450;SDS011;58869;51.982;4.450;2023-03-01T00:28:23;22.20;;;22.19;;
70450;SDS011;58869;51.982;4.450;2023-03-01T00:30:54;22.70;;;22.69;;
70450;SDS011;58869;51.982;4.450;2023-03-01T00:33:20;22.06;;;22.02;;
70450;SDS011;58869;51.982;4.450;2023-03-01T00:35:51;22.31;;;22.31;;
70450;SDS011;58869;51.982;4.450;2023-03-01T00:38:23;22.57;;;22.57;;
70450;SDS011;58869;51.982;4.450;2023-03-01T00:40:51;23.13;;;23.13;;
70450;SDS011;58869;51.982;4.450;2023-03-01T00:43:20;23.54;;;23.53;;
70450;SDS011;58869;51.982;4.450;2023-03-01T00:45:49;22.55;;;22.55;;
70450;SDS011;58869;51.982;4.450;2023-03-01T00:48:35;22.99;;;22.99;;
70450;SDS011;58869;51.982;4.450;2023-03-01T00:51:25;23.57;;;23.57;;
70450;SDS011;58869;51.982;4.450;2023-03-01T00:54:02;23.43;;;23.43;;
70450;SDS011;58869;51.982;4.450;2023-03-01T00:56:31;23.70;;;23.69;;
70450;SDS011;58869;51.982;4.450;2023-03-01T00:58:56;23.49;;;23.49;;
70450;SDS011;58869;51.982;4.450;2023-03-01T01:01:34;24.33;;;24.28;;
70450;SDS011;58869;51.982;4.450;2023-03-01T01:04:00;24.27;;;24.25;;
70450;SDS011;58869;51.982;4.450;2023-03-01T01:06:35;23.79;;;23.79;;
70450;SDS011;58869;51.982;4.450;2023-03-01T01:09:09;24.64;;;24.26;;
70450;SDS011;58869;51.982;4.450;2023-03-01T01:11:44;24.45;;;24.33;;
70450;SDS011;58869;51.982;4.450;2023-03-01T01:14:15;24.32;;;24.28;;
70450;SDS011;58869;51.982;4.450;2023-03-01T01:19:46;25.34;;;25.23;;
70450;SDS011;58869;51.982;4.450;2023-03-01T01:22:23;25.08;;;25.06;;
70450;SDS011;58869;51.982;4.450;2023-03-01T01:27:17;25.06;;;25.05;;
70450;SDS011;58869;51.982;4.450;2023-03-01T01:29:44;25.90;;;25.54;;
70450;SDS011;58869;51.982;4.450;2023-03-01T01:32:09;26.50;;;26.30;;
70450;SDS011;58869;51.982;4.450;2023-03-01T01:34:36;26.07;;;26.06;;
70450;SDS011;58869;51.982;4.450;2023-03-01T01:37:02;26.57;;;26.54;;
70450;SDS011;58869;51.982;4.450;2023-03-01T01:39:28;26.96;;;26.35;;
70450;SDS011;58869;51.982;4.450;2023-03-01T01:41:53;27.65;;;26.85;;
70450;SDS011;58869;51.982;4.450;2023-03-01T01:44:28;27.33;;;26.73;;
70450;SDS011;58869;51.982;4.450;2023-03-01T01:49:47;27.78;;;27.71;;
70450;SDS011;58869;51.982;4.450;2023-03-01T01:52:23;28.63;;;27.92;;
70450;SDS011;58869;51.982;4.450;2023-03-01T01:57:36;29.75;;;29.15;;
70450;SDS011;58869;51.982;4.450;2023-03-01T02:00:06;28.94;;;28.60;;
70450;SDS011;58869;51.982;4.450;2023-03-01T02:02:35;30.02;;;29.32;;
70450;SDS011;58869;51.982;4.450;2023-03-01T02:05:03;29.74;;;29.52;;
70450;SDS011;58869;51.982;4.450;2023-03-01T02:07:36;30.79;;;30.20;;
70450;SDS011;58869;51.982;4.450;2023-03-01T02:10:07;31.37;;;30.28;;
70450;SDS011;58869;51.982;4.450;2023-03-01T02:12:33;31.19;;;30.65;;
70450;SDS011;58869;51.982;4.450;2023-03-01T02:15:01;30.92;;;30.26;;
70450;SDS011;58869;51.982;4.450;2023-03-01T02:17:26;32.43;;;31.69;;
70450;SDS011;58869;51.982;4.450;2023-03-01T02:19:59;31.35;;;30.75;;
70450;SDS011;58869;51.982;4.450;2023-03-01T02:22:41;31.93;;;31.10;;
70450;SDS011;58869;51.982;4.450;2023-03-01T02:30:35;32.78;;;31.75;;
70450;SDS011;58869;51.982;4.450;2023-03-01T02:33:01;32.01;;;31.25;;
70450;SDS011;58869;51.982;4.450;2023-03-01T02:35:30;31.84;;;31.13;;
70450;SDS011;58869;51.982;4.450;2023-03-01T02:37:59;33.58;;;32.52;;
70450;SDS011;58869;51.982;4.450;2023-03-01T02:42:56;31.56;;;31.19;;
70450;SDS011;58869;51.982;4.450;2023-03-01T02:45:22;32.93;;;32.31;;
70450;SDS011;58869;51.982;4.450;2023-03-01T02:47:48;33.55;;;32.45;;
70450;SDS011;58869;51.982;4.450;2023-03-01T02:50:17;32.36;;;31.91;;
70450;SDS011;58869;51.982;4.450;2023-03-01T02:55:31;32.89;;;31.72;;
70450;SDS011;58869;51.982;4.450;2023-03-01T02:57:56;32.83;;;31.72;;
70450;SDS011;58869;51.982;4.450;2023-03-01T03:00:35;32.58;;;31.97;;
70450;SDS011;58869;51.982;4.450;2023-03-01T03:03:10;31.95;;;31.50;;
70450;SDS011;58869;51.982;4.450;2023-03-01T03:05:39;33.77;;;32.73;;
70450;SDS011;58869;51.982;4.450;2023-03-01T03:08:05;32.90;;;32.17;;
70450;SDS011;58869;51.982;4.450;2023-03-01T03:10:34;32.84;;;32.00;;
70450;SDS011;58869;51.982;4.450;2023-03-01T03:13:04;33.63;;;32.49;;
70450;SDS011;58869;51.982;4.450;2023-03-01T03:15:32;34.21;;;33.08;;
70450;SDS011;58869;51.982;4.450;2023-03-01T03:18:01;35.23;;;34.05;;
70450;SDS011;58869;51.982;4.450;2023-03-01T03:20:28;35.13;;;33.97;;
70450;SDS011;58869;51.982;4.450;2023-03-01T03:22:56;34.43;;;33.29;;
70450;SDS011;58869;51.982;4.450;2023-03-01T03:25:23;32.65;;;32.17;;
70450;SDS011;58869;51.982;4.450;2023-03-01T03:27:52;35.30;;;34.50;;
70450;SDS011;58869;51.982;4.450;2023-03-01T03:30:28;35.37;;;34.32;;
70450;SDS011;58869;51.982;4.450;2023-03-01T03:32:56;35.37;;;34.24;;
70450;SDS011;58869;51.982;4.450;2023-03-01T03:35:26;35.57;;;34.69;;
70450;SDS011;58869;51.982;4.450;2023-03-01T03:37:58;34.22;;;33.67;;
70450;SDS011;58869;51.982;4.450;2023-03-01T03:40:38;35.35;;;34.81;;
70450;SDS011;58869;51.982;4.450;2023-03-01T03:43:06;35.45;;;34.28;;
70450;SDS011;58869;51.982;4.450;2023-03-01T03:45:33;34.91;;;33.81;;
70450;SDS011;58869;51.982;4.450;2023-03-01T03:48:00;35.69;;;34.72;;
70450;SDS011;58869;51.982;4.450;2023-03-01T03:50:26;36.21;;;35.02;;
70450;SDS011;58869;51.982;4.450;2023-03-01T03:52:52;37.42;;;36.03;;
70450;SDS011;58869;51.982;4.450;2023-03-01T03:55:18;37.33;;;36.29;;
70450;SDS011;58869;51.982;4.450;2023-03-01T03:57:45;37.72;;;36.23;;
70450;SDS011;58869;51.982;4.450;2023-03-01T04:00:17;36.03;;;35.17;;
70450;SDS011;58869;51.982;4.450;2023-03-01T04:02:44;36.79;;;35.49;;
70450;SDS011;58869;51.982;4.450;2023-03-01T04:07:52;35.93;;;34.80;;
70450;SDS011;58869;51.982;4.450;2023-03-01T04:13:40;37.77;;;36.47;;
70450;SDS011;58869;51.982;4.450;2023-03-01T04:16:24;38.09;;;37.10;;
70450;SDS011;58869;51.982;4.450;2023-03-01T04:18:58;37.77;;;36.71;;
70450;SDS011;58869;51.982;4.450;2023-03-01T04:21:40;39.20;;;37.69;;
70450;SDS011;58869;51.982;4.450;2023-03-01T04:24:06;37.70;;;36.67;;
70450;SDS011;58869;51.982;4.450;2023-03-01T04:30:07;38.08;;;36.87;;
70450;SDS011;58869;51.982;4.450;2023-03-01T04:35:26;39.54;;;38.10;;
70450;SDS011;58869;51.982;4.450;2023-03-01T04:37:55;39.93;;;38.75;;
70450;SDS011;58869;51.982;4.450;2023-03-01T04:40:24;41.64;;;40.00;;
70450;SDS011;58869;51.982;4.450;2023-03-01T04:42:52;41.68;;;40.12;;
70450;SDS011;58869;51.982;4.450;2023-03-01T04:45:27;41.48;;;40.11;;
70450;SDS011;58869;51.982;4.450;2023-03-01T04:48:08;40.20;;;39.36;;
70450;SDS011;58869;51.982;4.450;2023-03-01T04:50:37;41.17;;;40.56;;
70450;SDS011;58869;51.982;4.450;2023-03-01T04:53:15;39.23;;;38.35;;
70450;SDS011;58869;51.982;4.450;2023-03-01T04:55:43;39.78;;;38.74;;
70450;SDS011;58869;51.982;4.450;2023-03-01T04:58:25;39.33;;;38.89;;
70450;SDS011;58869;51.982;4.450;2023-03-01T05:01:14;38.11;;;37.31;;
70450;SDS011;58869;51.982;4.450;2023-03-01T05:03:48;38.22;;;37.22;;
70450;SDS011;58869;51.982;4.450;2023-03-01T05:06:16;38.41;;;37.69;;
70450;SDS011;58869;51.982;4.450;2023-03-01T05:08:45;37.62;;;36.71;;
70450;SDS011;58869;51.982;4.450;2023-03-01T05:11:11;37.70;;;36.79;;
70450;SDS011;58869;51.982;4.450;2023-03-01T05:13:42;38.14;;;37.04;;
70450;SDS011;58869;51.982;4.450;2023-03-01T05:16:08;37.70;;;36.89;;
70450;SDS011;58869;51.982;4.450;2023-03-01T05:18:43;37.33;;;36.65;;
70450;SDS011;58869;51.982;4.450;2023-03-01T05:21:50;38.11;;;36.98;;
70450;SDS011;58869;51.982;4.450;2023-03-01T05:24:36;37.82;;;36.45;;
70450;SDS011;58869;51.982;4.450;2023-03-01T05:27:09;38.21;;;37.00;;
70450;SDS011;58869;51.982;4.450;2023-03-01T05:29:38;38.01;;;36.73;;
70450;SDS011;58869;51.982;4.450;2023-03-01T05:32:09;36.90;;;36.16;;
70450;SDS011;58869;51.982;4.450;2023-03-01T05:34:35;37.31;;;36.30;;
70450;SDS011;58869;51.982;4.450;2023-03-01T05:37:01;36.99;;;35.49;;
70450;SDS011;58869;51.982;4.450;2023-03-01T05:39:43;36.70;;;35.64;;
70450;SDS011;58869;51.982;4.450;2023-03-01T05:42:32;36.71;;;35.85;;
70450;SDS011;58869;51.982;4.450;2023-03-01T05:44:57;36.17;;;35.04;;
70450;SDS011;58869;51.982;4.450;2023-03-01T05:47:25;36.37;;;35.50;;
70450;SDS011;58869;51.982;4.450;2023-03-01T05:49:51;35.40;;;34.79;;
70450;SDS011;58869;51.982;4.450;2023-03-01T05:52:37;35.75;;;34.92;;
70450;SDS011;58869;51.982;4.450;2023-03-01T05:55:38;35.93;;;35.02;;
70450;SDS011;58869;51.982;4.450;2023-03-01T05:58:04;36.39;;;35.46;;
70450;SDS011;58869;51.982;4.450;2023-03-01T06:00:50;35.69;;;34.26;;
70450;SDS011;58869;51.982;4.450;2023-03-01T06:03:18;32.64;;;31.99;;
70450;SDS011;58869;51.982;4.450;2023-03-01T06:05:44;32.15;;;31.47;;
70450;SDS011;58869;51.982;4.450;2023-03-01T06:08:10;31.27;;;31.08;;
70450;SDS011;58869;51.982;4.450;2023-03-01T06:10:57;31.91;;;31.24;;
70450;SDS011;58869;51.982;4.450;2023-03-01T06:13:30;31.25;;;30.92;;
70450;SDS011;58869;51.982;4.450;2023-03-01T06:16:08;31.22;;;30.88;;
70450;SDS011;58869;51.982;4.450;2023-03-01T06:18:43;30.64;;;29.89;;
70450;SDS011;58869;51.982;4.450;2023-03-01T06:21:14;29.36;;;29.31;;
70450;SDS011;58869;51.982;4.450;2023-03-01T06:23:45;30.10;;;30.04;;
70450;SDS011;58869;51.982;4.450;2023-03-01T06:26:11;30.14;;;29.90;;
70450;SDS011;58869;51.982;4.450;2023-03-01T06:31:12;30.38;;;30.26;;
70450;SDS011;58869;51.982;4.450;2023-03-01T06:33:44;28.31;;;27.87;;
70450;SDS011;58869;51.982;4.450;2023-03-01T06:36:52;26.02;;;25.96;;
70450;SDS011;58869;51.982;4.450;2023-03-01T06:42:11;22.91;;;22.91;;
70450;SDS011;58869;51.982;4.450;2023-03-01T06:54:07;25.21;;;25.20;;
70450;SDS011;58869;51.982;4.450;2023-03-01T06:56:33;24.09;;;24.04;;
70450;SDS011;58869;51.982;4.450;2023-03-01T06:58:58;24.89;;;24.85;;
70450;SDS011;58869;51.982;4.450;2023-03-01T07:01:24;26.99;;;26.82;;
70450;SDS011;58869;51.982;4.450;2023-03-01T07:03:51;26.97;;;26.96;;
70450;SDS011;58869;51.982;4.450;2023-03-01T07:06:17;25.94;;;25.92;;
70450;SDS011;58869;51.982;4.450;2023-03-01T07:08:43;27.03;;;26.94;;
70450;SDS011;58869;51.982;4.450;2023-03-01T07:11:08;27.02;;;27.02;;
70450;SDS011;58869;51.982;4.450;2023-03-01T07:13:34;27.50;;;27.38;;
70450;SDS011;58869;51.982;4.450;2023-03-01T07:15:59;27.37;;;27.29;;
70450;SDS011;58869;51.982;4.450;2023-03-01T07:18:26;25.65;;;25.54;;
70450;SDS011;58869;51.982;4.450;2023-03-01T07:20:52;27.62;;;27.43;;
70450;SDS011;58869;51.982;4.450;2023-03-01T07:23:17;28.77;;;28.50;;
70450;SDS011;58869;51.982;4.450;2023-03-01T07:25:43;30.45;;;30.25;;
70450;SDS011;58869;51.982;4.450;2023-03-01T07:28:08;34.54;;;33.82;;
70450;SDS011;58869;51.982;4.450;2023-03-01T07:30:34;35.16;;;34.77;;
70450;SDS011;58869;51.982;4.450;2023-03-01T07:33:02;34.42;;;34.19;;
70450;SDS011;58869;51.982;4.450;2023-03-01T07:35:28;35.07;;;34.69;;
70450;SDS011;58869;51.982;4.450;2023-03-01T07:37:53;34.32;;;34.01;;
70450;SDS011;58869;51.982;4.450;2023-03-01T07:40:19;35.25;;;34.37;;
70450;SDS011;58869;51.982;4.450;2023-03-01T07:42:44;34.25;;;33.54;;
70450;SDS011;58869;51.982;4.450;2023-03-01T07:45:13;34.14;;;33.61;;
70450;SDS011;58869;51.982;4.450;2023-03-01T07:47:38;33.82;;;33.34;;
70450;SDS011;58869;51.982;4.450;2023-03-01T07:50:04;33.89;;;33.70;;
70450;SDS011;58869;51.982;4.450;2023-03-01T07:52:30;33.56;;;33.09;;
70450;SDS011;58869;51.982;4.450;2023-03-01T07:54:56;32.94;;;32.45;;
70450;SDS011;58869;51.982;4.450;2023-03-01T07:57:21;31.52;;;31.45;;
70450;SDS011;58869;51.982;4.450;2023-03-01T07:59:47;31.80;;;31.29;;
70450;SDS011;58869;51.982;4.450;2023-03-01T08:02:13;28.08;;;28.08;;
70450;SDS011;58869;51.982;4.450;2023-03-01T08:04:40;29.76;;;29.76;;
70450;SDS011;58869;51.982;4.450;2023-03-01T08:07:06;28.99;;;28.97;;
70450;SDS011;58869;51.982;4.450;2023-03-01T08:09:34;30.25;;;30.22;;
70450;SDS011;58869;51.982;4.450;2023-03-01T08:12:00;31.95;;;31.50;;
70450;SDS011;58869;51.982;4.450;2023-03-01T08:14:26;31.06;;;30.65;;
70450;SDS011;58869;51.982;4.450;2023-03-01T08:16:51;29.65;;;29.48;;
70450;SDS011;58869;51.982;4.450;2023-03-01T08:19:17;28.71;;;28.54;;
70450;SDS011;58869;51.982;4.450;2023-03-01T08:21:43;27.81;;;27.59;;
70450;SDS011;58869;51.982;4.450;2023-03-01T08:24:09;26.61;;;26.55;;
70450;SDS011;58869;51.982;4.450;2023-03-01T08:26:37;26.87;;;26.76;;
70450;SDS011;58869;51.982;4.450;2023-03-01T08:29:04;26.95;;;26.92;;
70450;SDS011;58869;51.982;4.450;2023-03-01T08:34:21;26.77;;;26.30;;
70450;SDS011;58869;51.982;4.450;2023-03-01T08:36:52;25.98;;;25.93;;
70450;SDS011;58869;51.982;4.450;2023-03-01T08:39:18;25.69;;;25.69;;
70450;SDS011;58869;51.982;4.450;2023-03-01T08:41:53;25.37;;;25.36;;
70450;SDS011;58869;51.982;4.450;2023-03-01T08:44:19;25.54;;;25.52;;
70450;SDS011;58869;51.982;4.450;2023-03-01T08:46:46;25.03;;;24.84;;
70450;SDS011;58869;51.982;4.450;2023-03-01T08:49:15;24.72;;;24.69;;
70450;SDS011;58869;51.982;4.450;2023-03-01T08:51:55;25.18;;;25.17;;
70450;SDS011;58869;51.982;4.450;2023-03-01T08:57:48;22.72;;;22.48;;
70450;SDS011;58869;51.982;4.450;2023-03-01T09:03:01;20.66;;;20.61;;
70450;SDS011;58869;51.982;4.450;2023-03-01T09:06:05;20.66;;;20.62;;
70450;SDS011;58869;51.982;4.450;2023-03-01T09:08:45;19.67;;;19.64;;
70450;SDS011;58869;51.982;4.450;2023-03-01T09:11:42;18.36;;;18.35;;
70450;SDS011;58869;51.982;4.450;2023-03-01T09:17:32;17.61;;;17.57;;
70450;SDS011;58869;51.982;4.450;2023-03-01T09:20:00;16.54;;;16.52;;
70450;SDS011;58869;51.982;4.450;2023-03-01T09:26:01;16.71;;;16.46;;
70450;SDS011;58869;51.982;4.450;2023-03-01T09:28:45;15.20;;;15.20;;
70450;SDS011;58869;51.982;4.450;2023-03-01T09:31:15;15.07;;;14.94;;
70450;SDS011;58869;51.982;4.450;2023-03-01T09:33:54;15.15;;;15.00;;
70450;SDS011;58869;51.982;4.450;2023-03-01T09:39:17;14.39;;;14.39;;
70450;SDS011;58869;51.982;4.450;2023-03-01T09:42:00;14.82;;;14.82;;
70450;SDS011;58869;51.982;4.450;2023-03-01T09:47:50;14.33;;;14.33;;
70450;SDS011;58869;51.982;4.450;2023-03-01T09:50:21;13.83;;;13.83;;
70450;SDS011;58869;51.982;4.450;2023-03-01T10:14:51;12.03;;;12.03;;
70450;SDS011;58869;51.982;4.450;2023-03-01T10:17:44;11.48;;;11.48;;
70450;SDS011;58869;51.982;4.450;2023-03-01T10:20:43;11.04;;;11.04;;
70450;SDS011;58869;51.982;4.450;2023-03-01T10:23:16;10.78;;;10.76;;
70450;SDS011;58869;51.982;4.450;2023-03-01T10:29:43;9.56;;;9.56;;
70450;SDS011;58869;51.982;4.450;2023-03-01T10:35:28;9.31;;;9.28;;
70450;SDS011;58869;51.982;4.450;2023-03-01T10:38:05;9.65;;;9.65;;
70450;SDS011;58869;51.982;4.450;2023-03-01T10:40:34;9.15;;;9.15;;
70450;SDS011;58869;51.982;4.450;2023-03-01T10:43:04;9.20;;;9.20;;
70450;SDS011;58869;51.982;4.450;2023-03-01T10:45:37;9.38;;;9.35;;
70450;SDS011;58869;51.982;4.450;2023-03-01T10:50:29;9.41;;;9.41;;
70450;SDS011;58869;51.982;4.450;2023-03-01T10:53:04;9.37;;;9.37;;
70450;SDS011;58869;51.982;4.450;2023-03-01T10:55:31;9.52;;;9.52;;
70450;SDS011;58869;51.982;4.450;2023-03-01T10:58:17;9.64;;;9.63;;
70450;SDS011;58869;51.982;4.450;2023-03-01T11:00:48;9.86;;;9.72;;
70450;SDS011;58869;51.982;4.450;2023-03-01T11:03:21;9.47;;;9.46;;
70450;SDS011;58869;51.982;4.450;2023-03-01T11:06:19;9.76;;;9.76;;
70450;SDS011;58869;51.982;4.450;2023-03-01T11:08:44;10.47;;;10.43;;
70450;SDS011;58869;51.982;4.450;2023-03-01T11:16:31;13.10;;;13.10;;
70450;SDS011;58869;51.982;4.450;2023-03-01T11:21:41;12.29;;;12.28;;
70450;SDS011;58869;51.982;4.450;2023-03-01T11:24:13;12.57;;;12.42;;
70450;SDS011;58869;51.982;4.450;2023-03-01T11:26:41;12.98;;;12.97;;
70450;SDS011;58869;51.982;4.450;2023-03-01T11:29:17;13.54;;;13.54;;
70450;SDS011;58869;51.982;4.450;2023-03-01T11:31:59;13.69;;;13.68;;
70450;SDS011;58869;51.982;4.450;2023-03-01T11:34:36;14.25;;;14.03;;
70450;SDS011;58869;51.982;4.450;2023-03-01T11:37:08;14.19;;;14.14;;
70450;SDS011;58869;51.982;4.450;2023-03-01T11:39:43;15.04;;;15.02;;
70450;SDS011;58869;51.982;4.450;2023-03-01T11:42:21;15.16;;;15.16;;
70450;SDS011;58869;51.982;4.450;2023-03-01T11:44:54;14.64;;;14.63;;
70450;SDS011;58869;51.982;4.450;2023-03-01T11:55:24;15.15;;;14.97;;
70450;SDS011;58869;51.982;4.450;2023-03-01T12:06:57;15.71;;;15.56;;
70450;SDS011;58869;51.982;4.450;2023-03-01T12:35:45;17.64;;;17.62;;
70450;SDS011;58869;51.982;4.450;2023-03-01T12:51:54;16.33;;;16.10;;
70450;SDS011;58869;51.982;4.450;2023-03-01T12:57:45;14.74;;;14.64;;
70450;SDS011;58869;51.982;4.450;2023-03-01T13:04:35;14.37;;;14.26;;
70450;SDS011;58869;51.982;4.450;2023-03-01T13:11:18;13.88;;;13.81;;
70450;SDS011;58869;51.982;4.450;2023-03-01T13:13:51;13.39;;;13.36;;
70450;SDS011;58869;51.982;4.450;2023-03-01T13:19:25;13.43;;;13.43;;
70450;SDS011;58869;51.982;4.450;2023-03-01T13:22:00;13.02;;;13.02;;
70450;SDS011;58869;51.982;4.450;2023-03-01T13:27:55;10.51;;;10.51;;
70450;SDS011;58869;51.982;4.450;2023-03-01T13:30:59;10.78;;;10.78;;
70450;SDS011;58869;51.982;4.450;2023-03-01T13:35:55;10.84;;;10.73;;
70450;SDS011;58869;51.982;4.450;2023-03-01T13:41:14;10.95;;;10.95;;
70450;SDS011;58869;51.982;4.450;2023-03-01T13:43:41;11.14;;;11.14;;
70450;SDS011;58869;51.982;4.450;2023-03-01T13:46:21;9.68;;;9.67;;
70450;SDS011;58869;51.982;4.450;2023-03-01T13:48:55;9.54;;;9.54;;
70450;SDS011;58869;51.982;4.450;2023-03-01T13:51:26;9.10;;;9.07;;
70450;SDS011;58869;51.982;4.450;2023-03-01T13:53:54;9.19;;;9.19;;
70450;SDS011;58869;51.982;4.450;2023-03-01T13:56:23;9.91;;;9.91;;
70450;SDS011;58869;51.982;4.450;2023-03-01T13:58:55;9.74;;;9.74;;
70450;SDS011;58869;51.982;4.450;2023-03-01T14:01:29;10.23;;;10.23;;
70450;SDS011;58869;51.982;4.450;2023-03-01T14:04:00;10.74;;;10.52;;
70450;SDS011;58869;51.982;4.450;2023-03-01T14:06:41;9.89;;;9.77;;
70450;SDS011;58869;51.982;4.450;2023-03-01T14:09:17;9.15;;;9.15;;
70450;SDS011;58869;51.982;4.450;2023-03-01T14:12:06;9.08;;;9.08;;
70450;SDS011;58869;51.982;4.450;2023-03-01T14:21:07;9.42;;;9.42;;
70450;SDS011;58869;51.982;4.450;2023-03-01T14:28:00;9.88;;;9.88;;
70450;SDS011;58869;51.982;4.450;2023-03-01T14:33:03;9.26;;;9.24;;
70450;SDS011;58869;51.982;4.450;2023-03-01T14:35:55;9.14;;;9.13;;
70450;SDS011;58869;51.982;4.450;2023-03-01T14:38:43;9.53;;;9.53;;
70450;SDS011;58869;51.982;4.450;2023-03-01T14:41:19;9.50;;;9.47;;
70450;SDS011;58869;51.982;4.450;2023-03-01T14:44:03;9.19;;;9.18;;
70450;SDS011;58869;51.982;4.450;2023-03-01T14:47:25;9.45;;;9.45;;
70450;SDS011;58869;51.982;4.450;2023-03-01T14:49:57;9.83;;;9.83;;
70450;SDS011;58869;51.982;4.450;2023-03-01T14:52:37;9.36;;;9.36;;
70450;SDS011;58869;51.982;4.450;2023-03-01T14:55:09;10.11;;;10.11;;
70450;SDS011;58869;51.982;4.450;2023-03-01T14:57:45;8.90;;;8.89;;
70450;SDS011;58869;51.982;4.450;2023-03-01T15:00:16;9.06;;;8.90;;
70450;SDS011;58869;51.982;4.450;2023-03-01T15:02:46;8.88;;;8.87;;
70450;SDS011;58869;51.982;4.450;2023-03-01T15:05:14;8.85;;;8.85;;
70450;SDS011;58869;51.982;4.450;2023-03-01T15:07:43;8.89;;;8.89;;
70450;SDS011;58869;51.982;4.450;2023-03-01T15:10:55;8.85;;;8.85;;
70450;SDS011;58869;51.982;4.450;2023-03-01T15:13:21;9.64;;;9.64;;
70450;SDS011;58869;51.982;4.450;2023-03-01T15:15:48;10.09;;;10.09;;
70450;SDS011;58869;51.982;4.450;2023-03-01T15:20:46;9.53;;;9.53;;
70450;SDS011;58869;51.982;4.450;2023-03-01T15:23:24;8.97;;;8.97;;
70450;SDS011;58869;51.982;4.450;2023-03-01T15:25:52;9.15;;;9.15;;
70450;SDS011;58869;51.982;4.450;2023-03-01T15:28:26;7.95;;;7.95;;
70450;SDS011;58869;51.982;4.450;2023-03-01T15:33:32;8.25;;;8.25;;
70450;SDS011;58869;51.982;4.450;2023-03-01T15:36:01;8.33;;;8.32;;
70450;SDS011;58869;51.982;4.450;2023-03-01T15:38:58;8.21;;;8.21;;
70450;SDS011;58869;51.982;4.450;2023-03-01T15:44:17;8.32;;;8.32;;
70450;SDS011;58869;51.982;4.450;2023-03-01T15:47:27;8.35;;;8.34;;
70450;SDS011;58869;51.982;4.450;2023-03-01T15:49:57;8.29;;;8.27;;
70450;SDS011;58869;51.982;4.450;2023-03-01T15:55:42;9.61;;;9.61;;
70450;SDS011;58869;51.982;4.450;2023-03-01T15:58:18;9.35;;;9.31;;
70450;SDS011;58869;51.982;4.450;2023-03-01T16:00:56;9.34;;;9.34;;
70450;SDS011;58869;51.982;4.450;2023-03-01T16:03:30;9.24;;;9.15;;
70450;SDS011;58869;51.982;4.450;2023-03-01T16:05:58;9.27;;;9.27;;
70450;SDS011;58869;51.982;4.450;2023-03-01T16:08:28;8.90;;;8.86;;
70450;SDS011;58869;51.982;4.450;2023-03-01T16:14:21;10.00;;;9.94;;
70450;SDS011;58869;51.982;4.450;2023-03-01T16:16:47;9.63;;;9.61;;
70450;SDS011;58869;51.982;4.450;2023-03-01T16:19:28;9.97;;;9.90;;
70450;SDS011;58869;51.982;4.450;2023-03-01T16:21:54;10.43;;;10.31;;
70450;SDS011;58869;51.982;4.450;2023-03-01T16:24:23;9.92;;;9.86;;
70450;SDS011;58869;51.982;4.450;2023-03-01T16:26:48;10.15;;;9.93;;
70450;SDS011;58869;51.982;4.450;2023-03-01T16:29:20;10.19;;;9.85;;
70450;SDS011;58869;51.982;4.450;2023-03-01T16:32:01;10.62;;;10.30;;
70450;SDS011;58869;51.982;4.450;2023-03-01T16:34:27;9.96;;;9.89;;
70450;SDS011;58869;51.982;4.450;2023-03-01T16:36:52;9.76;;;9.76;;
70450;SDS011;58869;51.982;4.450;2023-03-01T16:39:20;10.13;;;10.11;;
70450;SDS011;58869;51.982;4.450;2023-03-01T16:41:55;10.16;;;10.05;;
70450;SDS011;58869;51.982;4.450;2023-03-01T16:44:20;10.23;;;10.13;;
70450;SDS011;58869;51.982;4.450;2023-03-01T16:55:55;10.29;;;10.28;;
70450;SDS011;58869;51.982;4.450;2023-03-01T16:58:24;10.67;;;10.56;;
70450;SDS011;58869;51.982;4.450;2023-03-01T17:00:56;10.93;;;10.78;;
70450;SDS011;58869;51.982;4.450;2023-03-01T17:03:42;10.58;;;10.58;;
70450;SDS011;58869;51.982;4.450;2023-03-01T17:06:10;10.24;;;10.24;;
70450;SDS011;58869;51.982;4.450;2023-03-01T17:08:50;10.39;;;10.30;;
70450;SDS011;58869;51.982;4.450;2023-03-01T17:11:18;10.65;;;10.32;;
70450;SDS011;58869;51.982;4.450;2023-03-01T17:13:51;10.93;;;10.52;;
70450;SDS011;58869;51.982;4.450;2023-03-01T17:16:17;10.38;;;10.22;;
70450;SDS011;58869;51.982;4.450;2023-03-01T17:22:24;11.09;;;11.07;;
70450;SDS011;58869;51.982;4.450;2023-03-01T17:24:49;10.91;;;10.74;;
70450;SDS011;58869;51.982;4.450;2023-03-01T17:27:17;10.97;;;10.87;;
70450;SDS011;58869;51.982;4.450;2023-03-01T17:29:43;10.57;;;10.54;;
70450;SDS011;58869;51.982;4.450;2023-03-01T17:32:09;10.72;;;10.64;;
70450;SDS011;58869;51.982;4.450;2023-03-01T17:34:34;10.46;;;10.34;;
70450;SDS011;58869;51.982;4.450;2023-03-01T17:37:01;10.63;;;10.61;;
70450;SDS011;58869;51.982;4.450;2023-03-01T17:39:28;11.39;;;11.20;;
70450;SDS011;58869;51.982;4.450;2023-03-01T17:42:09;11.04;;;11.01;;
70450;SDS011;58869;51.982;4.450;2023-03-01T17:44:34;11.08;;;11.03;;
70450;SDS011;58869;51.982;4.450;2023-03-01T17:47:02;12.02;;;11.90;;
70450;SDS011;58869;51.982;4.450;2023-03-01T17:49:43;11.50;;;11.28;;
70450;SDS011;58869;51.982;4.450;2023-03-01T17:52:09;11.16;;;10.96;;
70450;SDS011;58869;51.982;4.450;2023-03-01T17:54:34;11.35;;;11.06;;
70450;SDS011;58869;51.982;4.450;2023-03-01T17:57:00;11.44;;;11.30;;
70450;SDS011;58869;51.982;4.450;2023-03-01T17:59:25;11.60;;;11.46;;
70450;SDS011;58869;51.982;4.450;2023-03-01T18:01:56;11.76;;;11.55;;
70450;SDS011;58869;51.982;4.450;2023-03-01T18:04:22;12.03;;;11.98;;
70450;SDS011;58869;51.982;4.450;2023-03-01T18:06:48;11.28;;;11.25;;
70450;SDS011;58869;51.982;4.450;2023-03-01T18:09:16;12.04;;;11.83;;
70450;SDS011;58869;51.982;4.450;2023-03-01T18:11:53;12.36;;;12.25;;
70450;SDS011;58869;51.982;4.450;2023-03-01T18:14:19;12.10;;;12.08;;
70450;SDS011;58869;51.982;4.450;2023-03-01T18:16:47;12.38;;;12.28;;
70450;SDS011;58869;51.982;4.450;2023-03-01T18:19:15;12.10;;;12.04;;
70450;SDS011;58869;51.982;4.450;2023-03-01T18:21:41;12.62;;;12.50;;
70450;SDS011;58869;51.982;4.450;2023-03-01T18:24:08;13.45;;;13.16;;
70450;SDS011;58869;51.982;4.450;2023-03-01T18:26:44;13.58;;;13.22;;
70450;SDS011;58869;51.982;4.450;2023-03-01T18:29:09;12.98;;;12.71;;
70450;SDS011;58869;51.982;4.450;2023-03-01T18:31:35;12.75;;;12.73;;
70450;SDS011;58869;51.982;4.450;2023-03-01T18:34:04;12.24;;;12.19;;
70450;SDS011;58869;51.982;4.450;2023-03-01T18:36:30;12.52;;;12.36;;
70450;SDS011;58869;51.982;4.450;2023-03-01T18:38:57;12.90;;;12.78;;
70450;SDS011;58869;51.982;4.450;2023-03-01T18:41:24;12.89;;;12.84;;
70450;SDS011;58869;51.982;4.450;2023-03-01T18:43:51;13.61;;;13.54;;
70450;SDS011;58869;51.982;4.450;2023-03-01T18:46:17;13.71;;;13.65;;
70450;SDS011;58869;51.982;4.450;2023-03-01T18:48:44;13.52;;;13.44;;
70450;SDS011;58869;51.982;4.450;2023-03-01T18:51:11;14.02;;;13.95;;
70450;SDS011;58869;51.982;4.450;2023-03-01T18:53:39;14.47;;;14.29;;
70450;SDS011;58869;51.982;4.450;2023-03-01T18:56:05;14.59;;;14.52;;
70450;SDS011;58869;51.982;4.450;2023-03-01T18:58:32;14.85;;;14.55;;
70450;SDS011;58869;51.982;4.450;2023-03-01T19:00:58;14.71;;;14.60;;